createdAt,value
2017-10-07T00:02:19.113Z,72.40
2017-10-07T00:04:49.176Z,72.80
2017-10-07T00:07:20.417Z,72.70
2017-10-07T00:09:50.535Z,72.70
2017-10-07T00:12:21.056Z,72.80
2017-10-07T00:14:53.222Z,72.80
2017-10-07T00:17:23.530Z,72.80
2017-10-07T00:19:53.263Z,72.90
2017-10-07T00:22:23.383Z,72.60
2017-10-07T00:24:53.502Z,73.00
2017-10-07T00:27:23.212Z,72.90
2017-10-07T00:29:53.536Z,72.90
2017-10-07T00:32:23.450Z,72.70
2017-10-07T00:34:53.316Z,72.60
2017-10-07T00:37:23.074Z,72.50
2017-10-07T00:39:53.812Z,72.70
2017-10-07T00:42:24.174Z,72.70
2017-10-07T00:44:54.417Z,72.70
2017-10-07T00:47:24.233Z,72.80
2017-10-07T00:49:54.065Z,72.60
2017-10-07T00:52:23.791Z,72.60
2017-10-07T00:54:54.754Z,72.60
2017-10-07T00:57:25.256Z,72.60
2017-10-07T00:59:55.352Z,72.80
2017-10-07T01:02:25.420Z,72.80
2017-10-07T01:04:55.418Z,72.60
2017-10-07T01:07:25.326Z,72.20
2017-10-07T01:09:55.651Z,72.50
2017-10-07T01:12:26.384Z,72.60
2017-10-07T01:14:56.303Z,72.40
2017-10-07T01:17:26.210Z,72.60
2017-10-07T01:19:56.740Z,72.40
2017-10-07T01:22:26.808Z,72.60
2017-10-07T01:24:56.976Z,72.30
2017-10-07T01:27:27.096Z,72.40
2017-10-07T01:29:57.214Z,72.30
2017-10-07T01:32:27.231Z,72.50
2017-10-07T01:34:57.373Z,72.60
2017-10-07T01:37:28.595Z,72.50
2017-10-07T01:39:58.715Z,72.50
2017-10-07T01:42:29.457Z,72.30
2017-10-07T01:44:59.562Z,72.30
2017-10-07T01:47:29.486Z,73.10
2017-10-07T01:49:59.584Z,72.20
2017-10-07T01:52:29.515Z,72.40
2017-10-07T01:54:59.842Z,72.20
2017-10-07T01:57:29.755Z,72.00
2017-10-07T02:00:00.487Z,71.90
2017-10-07T02:02:30.549Z,72.20
2017-10-07T02:05:01.340Z,72.30
2017-10-07T02:07:31.054Z,72.40
2017-10-07T02:10:00.965Z,72.10
2017-10-07T02:12:31.084Z,72.20
2017-10-07T02:15:01.003Z,72.30
2017-10-07T02:17:30.913Z,71.90
2017-10-07T02:20:00.621Z,72.20
2017-10-07T02:22:30.531Z,72.30
2017-10-07T02:25:02.293Z,72.20
2017-10-07T02:27:32.015Z,72.20
2017-10-07T02:30:02.244Z,72.50
2017-10-07T02:32:32.038Z,72.80
2017-10-07T02:35:01.953Z,72.60
2017-10-07T02:37:32.685Z,72.50
2017-10-07T02:40:02.812Z,72.50
2017-10-07T02:42:32.717Z,72.50
2017-10-07T02:45:02.641Z,72.60
2017-10-07T02:47:32.546Z,72.30
2017-10-07T02:50:04.088Z,72.50
2017-10-07T02:52:34.628Z,72.50
2017-10-07T02:55:04.554Z,72.40
2017-10-07T02:57:34.458Z,72.50
2017-10-07T03:00:05.194Z,72.70
2017-10-07T03:02:35.318Z,72.70
2017-10-07T03:05:05.226Z,72.60
2017-10-07T03:07:35.343Z,72.70
2017-10-07T03:10:06.079Z,72.60
2017-10-07T03:12:35.791Z,72.50
2017-10-07T03:15:05.710Z,72.70
2017-10-07T03:17:35.683Z,72.90
2017-10-07T03:20:05.681Z,72.90
2017-10-07T03:22:35.598Z,72.70
2017-10-07T03:25:05.602Z,72.80
2017-10-07T03:27:35.413Z,73.00
2017-10-07T03:30:05.598Z,72.80
2017-10-07T03:32:35.511Z,72.80
2017-10-07T03:35:05.424Z,73.00
2017-10-07T03:37:35.343Z,72.80
2017-10-07T03:40:05.462Z,72.90
2017-10-07T03:42:35.578Z,72.70
2017-10-07T03:45:05.291Z,72.90
2017-10-07T03:47:35.411Z,72.90
2017-10-07T03:50:05.320Z,73.10
2017-10-07T03:52:35.439Z,73.00
2017-10-07T03:55:05.152Z,73.20
2017-10-07T03:57:35.048Z,73.00
2017-10-07T04:00:04.784Z,73.00
2017-10-07T04:02:34.689Z,73.00
2017-10-07T04:05:04.742Z,73.00
2017-10-07T04:07:34.520Z,73.10
2017-10-07T04:10:04.434Z,73.00
2017-10-07T04:12:34.508Z,73.00
2017-10-07T04:15:05.194Z,73.10
2017-10-07T04:17:35.821Z,73.80
2017-10-07T04:20:06.492Z,73.80
2017-10-07T04:22:36.462Z,74.50
2017-10-07T04:25:06.581Z,74.00
2017-10-07T04:27:37.730Z,74.00
2017-10-07T04:30:07.641Z,74.00
2017-10-07T04:32:37.349Z,73.90
2017-10-07T04:35:07.056Z,73.80
2017-10-07T04:37:36.773Z,74.00
2017-10-07T04:40:06.474Z,74.00
2017-10-07T04:42:36.390Z,74.10
2017-10-07T04:45:07.741Z,74.00
2017-10-07T04:47:37.842Z,74.10
2017-10-07T04:50:09.400Z,74.20
2017-10-07T04:52:39.324Z,74.20
2017-10-07T04:55:10.467Z,74.20
2017-10-07T04:57:41.417Z,74.20
2017-10-07T05:00:11.528Z,74.30
2017-10-07T05:02:41.439Z,74.00
2017-10-07T05:05:12.172Z,74.50
2017-10-07T05:07:41.882Z,74.50
2017-10-07T05:10:11.796Z,74.40
2017-10-07T05:12:41.506Z,74.30
2017-10-07T05:15:11.635Z,74.30
2017-10-07T05:17:41.538Z,74.20
2017-10-07T05:20:12.069Z,74.30
2017-10-07T05:22:41.914Z,74.30
2017-10-07T05:25:11.693Z,74.40
2017-10-07T05:27:41.401Z,74.40
2017-10-07T05:30:11.112Z,74.30
2017-10-07T05:32:41.845Z,74.40
2017-10-07T05:35:12.583Z,74.50
2017-10-07T05:37:42.480Z,74.40
2017-10-07T05:40:12.422Z,74.30
2017-10-07T05:42:42.942Z,74.40
2017-10-07T05:45:12.948Z,74.40
2017-10-07T05:47:43.742Z,74.50
2017-10-07T05:50:13.686Z,74.60
2017-10-07T05:52:43.617Z,74.80
2017-10-07T05:55:13.534Z,74.60
2017-10-07T05:57:43.431Z,74.50
2017-10-07T06:00:13.159Z,74.60
2017-10-07T06:02:42.866Z,74.50
2017-10-07T06:05:13.143Z,74.70
2017-10-07T06:07:43.105Z,74.60
2017-10-07T06:10:13.632Z,74.60
2017-10-07T06:12:44.346Z,74.70
2017-10-07T06:17:47.917Z,74.70
2017-10-07T06:20:17.802Z,74.70
2017-10-07T06:22:47.976Z,74.70
2017-10-07T06:25:18.043Z,74.70
2017-10-07T06:27:48.145Z,74.70
2017-10-07T06:30:18.016Z,74.70
2017-10-07T06:32:48.136Z,74.80
2017-10-07T06:35:18.802Z,74.70
2017-10-07T06:37:49.646Z,74.70
2017-10-07T06:40:19.571Z,74.70
2017-10-07T06:42:49.422Z,75.00
2017-10-07T06:45:19.609Z,74.70
2017-10-07T06:47:49.517Z,74.70
2017-10-07T06:50:19.431Z,74.90
2017-10-07T06:52:49.545Z,74.80
2017-10-07T06:55:19.876Z,74.70
2017-10-07T06:57:50.198Z,74.80
2017-10-07T07:00:20.113Z,74.70
2017-10-07T07:02:51.051Z,74.70
2017-10-07T07:05:23.131Z,74.70
2017-10-07T07:07:54.505Z,74.70
2017-10-07T07:10:26.123Z,74.70
2017-10-07T07:12:56.189Z,74.70
2017-10-07T07:15:27.575Z,74.90
2017-10-07T07:17:58.156Z,75.30
2017-10-07T07:20:30.999Z,74.70
2017-10-07T07:23:01.485Z,74.60
2017-10-07T07:25:31.551Z,74.70
2017-10-07T07:28:01.851Z,74.60
2017-10-07T07:30:31.989Z,74.50
2017-10-07T07:33:02.731Z,74.80
2017-10-07T07:35:33.215Z,74.70
2017-10-07T07:38:03.374Z,74.80
2017-10-07T07:40:33.720Z,74.70
2017-10-07T07:43:03.778Z,74.90
2017-10-07T07:45:34.439Z,74.80
2017-10-07T07:48:04.663Z,75.00
2017-10-07T07:50:34.836Z,75.00
2017-10-07T07:53:06.521Z,75.10
2017-10-07T07:55:37.600Z,75.10
2017-10-07T07:58:08.860Z,75.10
2017-10-07T08:00:38.951Z,75.00
2017-10-07T08:03:09.480Z,75.30
2017-10-07T08:05:39.607Z,75.30
2017-10-07T08:08:09.733Z,75.30
2017-10-07T08:10:39.734Z,75.40
2017-10-07T08:13:10.792Z,75.50
2017-10-07T08:15:41.097Z,75.40
2017-10-07T08:18:11.218Z,75.60
2017-10-07T08:20:42.069Z,75.60
2017-10-07T08:23:12.849Z,75.90
2017-10-07T08:25:42.695Z,75.90
2017-10-07T08:28:12.719Z,76.00
2017-10-07T08:30:42.633Z,75.90
2017-10-07T08:33:12.753Z,76.10
2017-10-07T08:35:42.667Z,76.20
2017-10-07T08:38:12.688Z,76.40
2017-10-07T08:40:43.318Z,76.40
2017-10-07T08:43:13.643Z,76.20
2017-10-07T08:45:44.166Z,76.00
2017-10-07T08:48:14.084Z,76.40
2017-10-07T08:50:44.405Z,76.30
2017-10-07T08:53:14.933Z,76.10
2017-10-07T08:55:45.007Z,76.10
2017-10-07T08:58:15.725Z,76.50
2017-10-07T09:00:46.130Z,76.40
2017-10-07T09:03:16.470Z,76.60
2017-10-07T09:05:46.758Z,76.70
2017-10-07T09:08:16.674Z,76.90
2017-10-07T09:10:46.798Z,76.90
2017-10-07T09:13:16.708Z,77.10
2017-10-07T09:15:46.984Z,77.00
2017-10-07T09:18:18.994Z,77.30
2017-10-07T09:20:49.114Z,77.00
2017-10-07T09:23:19.234Z,77.10
2017-10-07T09:25:49.151Z,77.40
2017-10-07T09:28:19.068Z,77.10
2017-10-07T09:30:48.975Z,77.20
2017-10-07T09:33:19.296Z,77.50
2017-10-07T09:35:49.134Z,77.80
2017-10-07T09:38:19.957Z,77.70
2017-10-07T09:40:49.863Z,78.00
2017-10-07T09:43:20.583Z,77.90
2017-10-07T09:45:52.149Z,78.20
2017-10-07T09:48:22.935Z,77.60
2017-10-07T09:50:53.627Z,77.80
2017-10-07T09:53:23.939Z,78.00
2017-10-07T09:55:54.059Z,78.10
2017-10-07T09:58:25.201Z,78.10
2017-10-07T10:00:56.551Z,78.40
2017-10-07T10:03:26.451Z,79.10
2017-10-07T10:05:56.596Z,78.30
2017-10-07T10:08:27.936Z,78.50
2017-10-07T10:10:58.858Z,78.30
2017-10-07T10:13:28.992Z,78.40
2017-10-07T10:15:59.314Z,78.40
2017-10-07T10:18:29.432Z,78.40
2017-10-07T10:20:59.551Z,78.50
2017-10-07T10:23:29.449Z,78.60
2017-10-07T10:25:59.584Z,78.90
2017-10-07T10:28:29.651Z,78.60
2017-10-07T10:31:00.234Z,78.60
2017-10-07T10:33:30.287Z,78.60
2017-10-07T10:36:00.469Z,78.90
2017-10-07T10:38:30.797Z,79.00
2017-10-07T10:41:00.919Z,79.30
2017-10-07T10:43:30.903Z,78.90
2017-10-07T10:46:01.359Z,79.50
2017-10-07T10:48:32.987Z,79.50
2017-10-07T10:51:03.235Z,79.40
2017-10-07T10:53:33.954Z,79.40
2017-10-07T10:56:04.420Z,79.70
2017-10-07T10:58:34.422Z,79.90
2017-10-07T11:01:05.031Z,79.50
2017-10-07T11:03:35.060Z,80.20
2017-10-07T11:06:05.090Z,80.10
2017-10-07T11:08:35.969Z,80.20
2017-10-07T11:11:06.200Z,80.20
2017-10-07T11:13:36.357Z,80.30
2017-10-07T11:16:06.636Z,80.10
2017-10-07T11:18:36.634Z,80.30
2017-10-07T11:21:06.803Z,80.20
2017-10-07T11:23:37.039Z,80.30
2017-10-07T11:26:07.338Z,79.80
2017-10-07T11:28:37.486Z,80.10
2017-10-07T11:31:07.632Z,80.50
2017-10-07T11:33:37.724Z,80.10
2017-10-07T11:36:07.801Z,80.40
2017-10-07T11:38:37.884Z,80.30
2017-10-07T11:41:07.972Z,80.50
2017-10-07T11:43:37.939Z,80.80
2017-10-07T11:46:07.910Z,80.90
2017-10-07T11:48:38.546Z,80.80
2017-10-07T11:51:09.374Z,81.20
2017-10-07T11:53:40.664Z,81.20
2017-10-07T11:56:10.604Z,81.00
2017-10-07T11:58:40.739Z,80.70
2017-10-07T12:01:25.998Z,80.90
2017-10-07T12:03:56.269Z,81.20
2017-10-07T12:06:27.922Z,81.80
2017-10-07T12:08:58.229Z,81.90
2017-10-07T12:11:28.348Z,81.80
2017-10-07T12:13:58.879Z,81.40
2017-10-07T12:16:30.221Z,81.30
2017-10-07T12:19:00.141Z,82.00
2017-10-07T12:21:30.271Z,81.60
2017-10-07T12:24:01.000Z,82.10
2017-10-07T12:26:31.522Z,81.70
2017-10-07T12:29:01.697Z,81.50
2017-10-07T12:31:31.962Z,81.90
2017-10-07T12:34:02.091Z,82.20
2017-10-07T12:36:32.412Z,82.30
2017-10-07T12:39:03.144Z,82.00
2017-10-07T12:41:33.363Z,82.30
2017-10-07T12:44:04.119Z,82.30
2017-10-07T12:46:34.882Z,82.30
2017-10-07T12:49:05.261Z,82.00
2017-10-07T12:51:35.498Z,82.40
2017-10-07T12:54:07.144Z,81.90
2017-10-07T12:56:37.269Z,82.60
2017-10-07T12:59:08.189Z,82.70
2017-10-07T13:01:38.931Z,82.50
2017-10-07T13:04:09.175Z,82.60
2017-10-07T13:06:39.172Z,83.10
2017-10-07T13:09:09.287Z,83.60
2017-10-07T13:11:39.810Z,84.00
2017-10-07T13:14:11.774Z,83.90
2017-10-07T13:16:42.710Z,83.70
2017-10-07T13:19:13.623Z,84.80
2017-10-07T13:21:43.971Z,84.60
2017-10-07T13:24:16.345Z,85.20
2017-10-07T13:26:46.462Z,85.90
2017-10-07T13:29:16.739Z,85.40
2017-10-07T13:31:47.117Z,85.20
2017-10-07T13:34:18.051Z,85.10
2017-10-07T13:36:48.369Z,84.80
2017-10-07T13:39:19.347Z,84.40
2017-10-07T13:41:49.738Z,83.50
2017-10-07T13:44:20.773Z,83.90
2017-10-07T13:46:51.120Z,84.50
2017-10-07T13:49:21.621Z,84.30
2017-10-07T13:51:51.955Z,83.10
2017-10-07T13:54:21.990Z,83.40
2017-10-07T13:56:52.909Z,83.20
2017-10-07T13:59:23.729Z,82.60
2017-10-07T14:01:54.084Z,84.70
2017-10-07T14:04:24.199Z,84.80
2017-10-07T14:06:54.723Z,85.30
2017-10-07T14:09:25.870Z,84.70
2017-10-07T14:11:56.190Z,84.70
2017-10-07T14:14:26.298Z,84.70
2017-10-07T14:16:57.155Z,82.30
2017-10-07T14:19:27.350Z,82.30
2017-10-07T14:21:57.407Z,83.20
2017-10-07T14:24:27.362Z,83.50
2017-10-07T14:26:57.936Z,81.70
2017-10-07T14:29:28.044Z,82.10
2017-10-07T14:31:58.692Z,81.70
2017-10-07T14:34:29.717Z,82.20
2017-10-07T14:36:59.837Z,82.20
2017-10-07T14:39:29.957Z,81.90
2017-10-07T14:42:00.862Z,81.50
2017-10-07T14:44:30.878Z,81.60
2017-10-07T14:47:01.132Z,80.80
2017-10-07T14:49:31.389Z,81.00
2017-10-07T14:52:01.408Z,81.10
2017-10-07T14:54:31.902Z,82.00
2017-10-07T14:57:01.817Z,81.50
2017-10-07T14:59:31.933Z,83.10
2017-10-07T15:02:02.879Z,82.20
2017-10-07T15:04:33.108Z,81.20
2017-10-07T15:07:03.929Z,83.30
2017-10-07T15:09:48.757Z,83.30
2017-10-07T15:12:18.917Z,82.10
2017-10-07T15:14:49.034Z,81.90
2017-10-07T15:17:19.089Z,82.90
2017-10-07T15:19:49.269Z,83.00
2017-10-07T15:22:19.390Z,82.60
2017-10-07T15:24:49.470Z,81.90
2017-10-07T15:27:20.610Z,82.80
2017-10-07T15:29:51.186Z,84.00
2017-10-07T15:32:21.319Z,83.80
2017-10-07T15:34:51.786Z,83.80
2017-10-07T15:37:21.953Z,83.90
2017-10-07T15:39:52.632Z,84.20
2017-10-07T15:42:22.393Z,84.70
2017-10-07T15:44:52.464Z,84.70
2017-10-07T15:47:22.830Z,85.00
2017-10-07T15:49:53.593Z,83.60
2017-10-07T15:52:23.483Z,83.50
2017-10-07T15:54:54.015Z,82.80
2017-10-07T15:57:23.950Z,82.80
2017-10-07T15:59:54.057Z,82.90
2017-10-07T16:02:24.338Z,82.60
2017-10-07T16:04:54.285Z,82.70
2017-10-07T16:07:25.263Z,82.90
2017-10-07T16:09:55.713Z,82.70
2017-10-07T16:12:25.464Z,82.80
2017-10-07T16:14:55.584Z,82.80
2017-10-07T16:17:25.699Z,82.70
2017-10-07T16:19:57.446Z,82.90
2017-10-07T16:22:28.952Z,82.60
2017-10-07T16:24:58.929Z,82.60
2017-10-07T16:27:28.991Z,82.90
2017-10-07T16:29:59.166Z,82.90
2017-10-07T16:32:29.423Z,82.80
2017-10-07T16:34:59.608Z,84.70
2017-10-07T16:37:29.609Z,85.00
2017-10-07T16:39:59.737Z,84.60
2017-10-07T16:42:30.873Z,83.50
2017-10-07T16:45:01.313Z,83.50
2017-10-07T16:47:31.433Z,83.20
2017-10-07T16:50:01.722Z,83.00
2017-10-07T16:52:31.874Z,83.00
2017-10-07T16:55:01.964Z,83.00
2017-10-07T16:57:33.965Z,83.10
2017-10-07T17:00:04.237Z,83.00
2017-10-07T17:02:34.287Z,82.70
2017-10-07T17:05:04.439Z,82.60
2017-10-07T17:07:35.050Z,82.80
2017-10-07T17:10:05.063Z,82.60
2017-10-07T17:12:36.888Z,82.60
2017-10-07T17:15:07.658Z,82.20
2017-10-07T17:17:39.209Z,82.30
2017-10-07T17:20:09.944Z,82.20
2017-10-07T17:22:39.653Z,82.40
2017-10-07T17:25:09.929Z,82.40
2017-10-07T17:27:40.917Z,82.20
2017-10-07T17:30:11.854Z,82.40
2017-10-07T17:32:42.727Z,82.30
2017-10-07T17:35:12.503Z,82.30
2017-10-07T17:37:42.413Z,82.30
2017-10-07T17:40:12.656Z,82.70
2017-10-07T17:42:44.505Z,83.00
2017-10-07T17:45:14.601Z,83.00
2017-10-07T17:47:45.147Z,83.00
2017-10-07T17:50:15.461Z,82.60
2017-10-07T17:52:45.543Z,82.50
2017-10-07T17:55:16.534Z,82.70
2017-10-07T17:57:46.468Z,83.00
2017-10-07T18:00:16.976Z,82.50
2017-10-07T18:02:47.450Z,82.50
2017-10-07T18:05:17.614Z,82.70
2017-10-07T18:07:47.567Z,82.70
2017-10-07T18:10:18.388Z,82.40
2017-10-07T18:12:49.991Z,82.40
2017-10-07T18:15:20.136Z,82.40
2017-10-07T18:17:50.681Z,82.30
2017-10-07T18:20:22.028Z,82.50
2017-10-07T18:22:52.967Z,82.60
2017-10-07T18:25:23.282Z,82.30
2017-10-07T18:27:53.654Z,82.30
2017-10-07T18:30:23.839Z,82.30
2017-10-07T18:32:56.035Z,82.20
2017-10-07T18:35:26.089Z,82.20
2017-10-07T18:37:56.337Z,82.00
2017-10-07T18:40:27.288Z,82.30
2017-10-07T18:42:57.394Z,82.20
2017-10-07T18:45:28.347Z,82.20
2017-10-07T18:47:58.658Z,82.10
2017-10-07T18:50:28.936Z,82.10
2017-10-07T18:52:58.894Z,82.10
2017-10-07T18:55:30.601Z,82.10
2017-10-07T18:58:00.571Z,82.10
2017-10-07T19:00:31.704Z,82.00
2017-10-07T19:03:01.761Z,81.90
2017-10-07T19:05:32.359Z,81.80
2017-10-07T19:08:02.686Z,81.90
2017-10-07T19:10:32.802Z,82.10
2017-10-07T19:13:04.156Z,81.90
2017-10-07T19:15:34.268Z,81.90
2017-10-07T19:18:05.016Z,81.90
2017-10-07T19:20:35.197Z,81.70
2017-10-07T19:23:05.405Z,81.80
2017-10-07T19:28:10.811Z,81.90
2017-10-07T19:30:41.331Z,81.80
2017-10-07T19:33:11.663Z,81.70
2017-10-07T19:35:42.600Z,81.90
2017-10-07T19:38:12.766Z,81.90
2017-10-07T19:40:43.656Z,81.90
2017-10-07T19:43:13.895Z,81.90
2017-10-07T19:45:44.085Z,81.80
2017-10-07T19:48:14.215Z,81.90
2017-10-07T19:50:45.767Z,81.80
2017-10-07T19:53:16.513Z,81.90
2017-10-07T19:55:46.843Z,81.80
2017-10-07T19:58:17.849Z,81.90
2017-10-07T20:00:47.890Z,81.90
2017-10-07T20:03:19.021Z,81.90
2017-10-07T20:05:49.082Z,81.90
2017-10-07T20:08:20.470Z,81.70
2017-10-07T20:10:50.538Z,81.70
2017-10-07T20:13:21.552Z,81.80
2017-10-07T20:15:52.648Z,82.00
2017-10-07T20:18:22.627Z,81.80
2017-10-07T20:20:52.933Z,82.10
2017-10-07T20:23:22.961Z,81.90
2017-10-07T20:25:53.073Z,81.90
2017-10-07T20:28:24.041Z,81.80
2017-10-07T20:30:53.989Z,81.80
2017-10-07T20:33:25.168Z,81.60
2017-10-07T20:35:55.285Z,81.60
2017-10-07T20:38:25.818Z,81.80
2017-10-07T20:40:56.105Z,81.60
2017-10-07T20:43:27.082Z,81.60
2017-10-07T20:45:57.809Z,81.60
2017-10-07T20:48:28.734Z,81.50
2017-10-07T20:50:58.731Z,81.50
2017-10-07T20:53:28.814Z,81.40
2017-10-07T20:55:59.108Z,82.60
2017-10-07T20:58:29.355Z,83.30
2017-10-07T21:00:59.548Z,84.10
2017-10-07T21:03:31.865Z,84.90
2017-10-07T21:06:02.042Z,85.00
2017-10-07T21:08:32.310Z,85.20
2017-10-07T21:11:02.280Z,85.00
2017-10-07T21:13:32.404Z,85.00
2017-10-07T21:16:02.728Z,85.40
2017-10-07T21:18:34.073Z,85.20
2017-10-07T21:21:04.398Z,85.40
2017-10-07T21:23:34.725Z,84.90
2017-10-07T21:26:04.834Z,84.80
2017-10-07T21:28:34.792Z,85.40
2017-10-07T21:31:05.033Z,84.60
2017-10-07T21:33:35.154Z,84.20
2017-10-07T21:36:05.315Z,84.60
2017-10-07T21:38:35.391Z,84.70
2017-10-07T21:41:05.552Z,84.60
2017-10-07T21:43:36.083Z,84.60
2017-10-07T21:46:05.996Z,84.50
2017-10-07T21:48:37.150Z,84.30
2017-10-07T21:51:08.285Z,84.60
2017-10-07T21:53:38.201Z,84.60
2017-10-07T21:56:08.727Z,84.40
2017-10-07T21:58:38.647Z,84.40
2017-10-07T22:01:08.744Z,84.20
2017-10-07T22:03:38.685Z,84.50
2017-10-07T22:06:08.666Z,84.20
2017-10-07T22:08:38.911Z,84.60
2017-10-07T22:11:08.824Z,84.10
2017-10-07T22:13:38.838Z,84.40
2017-10-07T22:16:08.840Z,84.10
2017-10-07T22:18:39.187Z,84.10
2017-10-07T22:21:09.468Z,84.30
2017-10-07T22:23:39.426Z,84.50
2017-10-07T22:26:09.544Z,84.40
2017-10-07T22:28:39.659Z,83.90
2017-10-07T22:31:09.985Z,84.00
2017-10-07T22:33:40.913Z,83.90
2017-10-07T22:36:11.059Z,83.80
2017-10-07T22:38:41.295Z,83.80
2017-10-07T22:41:11.415Z,84.00
2017-10-07T22:43:41.607Z,83.70
2017-10-07T22:46:11.450Z,83.60
2017-10-07T22:48:41.400Z,84.00
2017-10-07T22:51:11.404Z,83.80
2017-10-07T22:53:41.470Z,83.80
2017-10-07T22:56:11.380Z,83.60
2017-10-07T22:58:41.266Z,83.80
2017-10-07T23:01:11.212Z,84.30
2017-10-07T23:03:41.299Z,83.70
2017-10-07T23:06:11.247Z,83.70
2017-10-07T23:08:41.336Z,83.90
2017-10-07T23:11:11.829Z,83.80
2017-10-07T23:13:41.749Z,83.70
2017-10-07T23:16:11.821Z,83.50
2017-10-07T23:18:42.043Z,83.40
2017-10-07T23:21:12.777Z,83.50
2017-10-07T23:23:43.546Z,83.50
2017-10-07T23:26:14.248Z,83.50
2017-10-07T23:28:44.161Z,83.50
2017-10-07T23:31:14.277Z,83.40
2017-10-07T23:33:44.969Z,83.60
2017-10-07T23:36:15.950Z,83.60
2017-10-07T23:38:45.863Z,83.70
2017-10-07T23:41:15.986Z,83.20
2017-10-07T23:43:47.125Z,83.40
2017-10-07T23:46:19.430Z,83.40
2017-10-07T23:48:50.234Z,83.40
2017-10-07T23:51:20.150Z,83.50
2017-10-07T23:53:50.064Z,82.90
2017-10-07T23:56:20.008Z,82.90
2017-10-07T23:58:49.874Z,83.20
